Collinsville, IL (62234)

2:59 PM CDT on May 23, 2017 (GMT -0500)
Tim and Carolyns yard | | Change Station
Active Advisory: Flood Warning

Elev 566 ft 38.66 °N, 89.99 °W | Updated 5 seconds ago

Overcast
Overcast
66.9 °F
Feels Like 66.9 °F
N
3.6
Wind Variable Wind from West
Gusts 7.4 mph

Today
High -- | Low -- °F
--% Chance of Precip.
Yesterday
High -- | Low -- °F
Precip. -- in
Pressure 29.71 in
Visibility 10.0 miles
Clouds Scattered Clouds 3400 ft
Overcast 5000 ft
Dew Point 36 °F
Humidity 32%
Rainfall 0.00 in
Snow Depth Not available.
5:41 AM 8:12 PM
Waning Crescent, 6% visible
METAR KCPS 231953Z 24003KT 10SM VCTS SCT034 OVC050 21/12 A2972 RMK AO2 SLP061 OCNL LTGCG TS N MOV E T02060117
Pressure 29.71 in
Visibility 10.0 miles
Clouds Scattered Clouds 3400 ft
Overcast 5000 ft
Dew Point 36 °F
Humidity 32%
Rainfall 0.00 in
Snow Depth Not available.
5:41 AM 8:12 PM
Waning Crescent, 6% visible
METAR KCPS 231953Z 24003KT 10SM VCTS SCT034 OVC050 21/12 A2972 RMK AO2 SLP061 OCNL LTGCG TS N MOV E T02060117

Get Your Daily Forecast Email!

Thanks for signing up!

Be on the lookout for a verification email in your inbox.

You'll start receiving severe weather alerts in your inbox..

×

10-Day Weather Forecast

Almanac

Astronomy

May. 23, 2017 Rise Set
Actual Time
Civil Twilight
Nautical Twilight
Astronomical Twilight
Moon
Length of Visible Light
Length of Day
Tomorrow will be .
, % of the Moon is Illuminated

Today's Extremes

State Highs State Lows

Community

WunderPhotos

Category 6

Welcome to Category 6. This is the collective home for Weather Underground's featured writeups by Dr. Jeff Masters (right), Bob Henson (left), Chris Burt, and other regular contributors.

Nearby

Air Quality

  Air Quality AQ Index Pollutant
Not available.

Snow Depth

Station Depth Elevation

Earthquake Activity

City Distance Mag. Time & Date
Minimum magnitude displayed is 2.5.

Coastal Water Temperatures

Place Temperature

Stations

Nearby Weather Stations

Station Location Temp. Windchill Dew Point Humidity Wind Precip. Elev Updated Type
                   

Watches & Warnings

Flood Warning
Issued: 11:49 AM CDT May. 23, 2017 – National Weather Service

The Flood Warning continues for
the Mississippi River at mel price ld
* until Tuesday may 30.
* At 11:30 am Tuesday the stage was 24.9 feet.
* Flood stage is 21.0 feet.
* Minor flooding is forecast.
* The river is forecast to continue falling to below flood stage by
Monday morning.


                   Fld latest 7 a.M. Forecast
location stg obs stg 05/24 05/25 05/26 05/27 05/28

Mississippi River
mel price ld 21.0 24.91 24.5 24.2 23.8 22.9 21.8




Lat... Lon 3891 9033 3895 9028 3883 9003 3881 9017
      3886 9017